Uniontown, Ohio
Current Conditions -  °F | °C
As of 10:51 PM on Thursday 18 Dec 2014 (Local Time) from KCAK Reporting Station
Haze Haze  
Wind Chill: 21°   Ceiling: 500
Heat Index: 28°   Visibility: 3mi
Dew Point: 25°   Wind: 7mph
Humidity: 88%   Direction: 260°W
Pressure: 30.15"   Gusts: NA
Location:  40.98°N, 81.41°W
Report Text: KCAK 190351Z 26006KT 3SM BR OVC005 M02/M04 A3015 RMK AO2 SLP225 T10221039
Loading
Personal Weather Stations






























Interactive Weather Map New forecast layout! Learn more

10-Day Weather Forecast

Advertisements
Track Severe Weather on mobile